Time,TemperatureF,DewpointF,PressureIn,WindDirection,WindDirectionDegrees,WindSpeedMPH,WindSpeedGustMPH,Humidity,HourlyPrecipIn,Conditions,Clouds,dailyrainin,SolarRadiationWatts/m^2,SoftwareType,DateUTC
2013-04-07 00:11:00,44.9,42.4,29.73,ESE,106,1.0,2.0,91,0.00,,,0.01,0,Wunderground v.1.15,2013-04-07 07:11:00,
2013-04-07 00:16:00,44.8,42.3,29.71,East,100,1.0,2.0,91,0.00,,,0.01,0,Wunderground v.1.15,2013-04-07 07:16:00,
2013-04-07 00:26:00,44.5,42.0,29.71,East,100,1.0,2.0,91,0.00,,,0.01,0,Wunderground v.1.15,2013-04-07 07:26:00,
2013-04-07 00:46:00,44.5,42.3,29.68,East,100,1.0,2.0,92,0.00,,,0.01,0,Wunderground v.1.15,2013-04-07 07:46:00,
2013-04-07 00:56:00,44.3,42.1,29.68,East,100,0.0,2.0,92,0.00,,,0.01,0,Wunderground v.1.15,2013-04-07 07:56:00,
2013-04-07 01:01:00,44.3,42.1,29.66,East,100,0.0,0.0,92,0.00,,,0.01,0,Wunderground v.1.15,2013-04-07 08:01:00,
2013-04-07 01:07:00,44.3,42.1,29.66,East,100,0.0,0.0,92,0.00,,,0.01,0,Wunderground v.1.15,2013-04-07 08:07:00,
2013-04-07 01:17:00,44.3,42.1,29.64,East,100,0.0,0.0,92,0.00,,,0.01,0,Wunderground v.1.15,2013-04-07 08:17:00,
2013-04-07 01:26:00,44.2,42.0,29.64,East,100,0.0,0.0,92,0.00,,,0.01,0,Wunderground v.1.15,2013-04-07 08:26:00,
2013-04-07 01:41:00,44.2,42.0,29.62,East,100,0.0,0.0,92,0.00,,,0.01,0,Wunderground v.1.15,2013-04-07 08:41:00,
2013-04-07 01:47:00,44.1,41.9,29.61,East,99,0.0,0.0,92,0.00,,,0.01,0,Wunderground v.1.15,2013-04-07 08:47:00,
2013-04-07 01:56:00,44.1,41.9,29.61,East,99,0.0,0.0,92,0.00,,,0.02,0,Wunderground v.1.15,2013-04-07 08:56:00,
2013-04-07 02:07:00,43.9,41.7,29.60,East,97,0.0,0.0,92,0.00,,,0.03,0,Wunderground v.1.15,2013-04-07 09:07:00,
2013-04-07 02:17:00,43.9,42.0,29.58,East,97,0.0,0.0,93,0.08,,,0.04,0,Wunderground v.1.15,2013-04-07 09:17:00,
2013-04-07 02:27:00,43.8,41.9,29.58,East,96,0.0,0.0,93,0.10,,,0.05,0,Wunderground v.1.15,2013-04-07 09:27:00,
2013-04-07 02:37:00,43.8,42.2,29.58,East,95,0.0,0.0,94,0.06,,,0.06,0,Wunderground v.1.15,2013-04-07 09:37:00,
2013-04-07 02:47:00,43.6,42.0,29.56,East,90,0.0,1.0,94,0.06,,,0.07,0,Wunderground v.1.15,2013-04-07 09:47:00,
2013-04-07 02:57:00,43.5,41.9,29.56,East,95,0.0,0.0,94,0.06,,,0.08,0,Wunderground v.1.15,2013-04-07 09:57:00,
2013-04-07 03:07:00,43.3,42.0,29.54,East,96,0.0,2.0,95,0.07,,,0.10,0,Wunderground v.1.15,2013-04-07 10:07:00,
2013-04-07 03:17:00,43.5,42.2,29.53,East,96,0.0,0.0,95,0.10,,,0.11,0,Wunderground v.1.15,2013-04-07 10:17:00,
2013-04-07 03:27:00,43.5,42.2,29.53,East,96,0.0,1.0,95,0.07,,,0.12,0,Wunderground v.1.15,2013-04-07 10:27:00,
2013-04-07 03:37:00,43.3,42.0,29.52,ENE,66,1.0,1.0,95,0.10,,,0.14,0,Wunderground v.1.15,2013-04-07 10:37:00,
2013-04-07 03:47:00,43.2,41.9,29.51,NNW,343,1.0,1.0,95,0.06,,,0.15,0,Wunderground v.1.15,2013-04-07 10:47:00,
2013-04-07 03:56:00,43.1,41.8,29.51,NNW,343,1.0,1.0,95,0.12,,,0.17,0,Wunderground v.1.15,2013-04-07 10:56:00,
2013-04-07 04:06:00,43.1,41.8,29.50,NW,325,2.0,2.0,95,0.16,,,0.19,0,Wunderground v.1.15,2013-04-07 11:06:00,
2013-04-07 04:16:00,42.9,41.6,29.49,WNW,301,1.0,1.0,95,0.12,,,0.21,0,Wunderground v.1.15,2013-04-07 11:16:00,
2013-04-07 04:31:00,42.8,41.5,29.48,NNW,340,3.0,3.0,95,0.14,,,0.25,0,Wunderground v.1.15,2013-04-07 11:31:00,
2013-04-07 04:36:00,42.8,41.5,29.48,NW,323,2.0,3.0,95,0.14,,,0.26,0,Wunderground v.1.15,2013-04-07 11:36:00,
2013-04-07 04:46:00,42.6,41.3,29.47,NNW,329,3.0,6.0,95,0.15,,,0.28,0,Wunderground v.1.15,2013-04-07 11:46:00,
2013-04-07 05:06:00,42.3,41.0,29.47,WNW,298,3.0,5.0,95,0.19,,,0.32,0,Wunderground v.1.15,2013-04-07 12:06:00,
2013-04-07 05:21:00,41.8,40.5,29.47,NW,319,2.0,3.0,95,0.10,,,0.34,0,Wunderground v.1.15,2013-04-07 12:21:00,
2013-04-07 05:26:00,41.6,40.3,29.47,NNW,328,3.0,3.0,95,0.15,,,0.36,0,Wunderground v.1.15,2013-04-07 12:26:00,
2013-04-07 05:36:00,41.3,40.0,29.46,NNW,335,3.0,3.0,95,0.17,,,0.38,0,Wunderground v.1.15,2013-04-07 12:36:00,
2013-04-07 05:46:00,40.9,39.3,29.45,NW,325,3.0,3.0,94,0.17,,,0.40,0,Wunderground v.1.15,2013-04-07 12:46:00,
2013-04-07 05:57:00,40.6,38.7,29.45,NNW,347,3.0,4.0,93,0.16,,,0.42,0,Wunderground v.1.15,2013-04-07 12:57:00,
2013-04-07 06:11:00,40.6,39.0,29.45,WNW,294,2.0,3.0,94,0.09,,,0.47,0,Wunderground v.1.15,2013-04-07 13:11:00,
2013-04-07 06:17:00,40.5,38.6,29.46,NNW,337,3.0,5.0,93,0.09,,,0.47,0,Wunderground v.1.15,2013-04-07 13:17:00,
2013-04-07 06:27:00,40.3,38.4,29.46,WNW,301,3.0,5.0,93,0.09,,,0.49,0,Wunderground v.1.15,2013-04-07 13:27:00,
2013-04-07 06:36:00,40.1,38.0,29.46,WNW,296,3.0,3.0,92,0.10,,,0.50,0,Wunderground v.1.15,2013-04-07 13:36:00,
2013-04-07 06:51:00,39.9,38.0,29.47,NW,306,1.0,1.0,93,0.06,,,0.51,0,Wunderground v.1.15,2013-04-07 13:51:00,
2013-04-07 06:56:00,39.9,38.0,29.47,NNW,332,2.0,2.0,93,0.06,,,0.52,0,Wunderground v.1.15,2013-04-07 13:56:00,
2013-04-07 07:07:00,39.9,38.3,29.47,WNW,301,2.0,3.0,94,0.04,,,0.52,7,Wunderground v.1.15,2013-04-07 14:07:00,
2013-04-07 07:17:00,40.1,38.5,29.48,WNW,301,0.0,1.0,94,0.00,,,0.53,18,Wunderground v.1.15,2013-04-07 14:17:00,
2013-04-07 07:31:00,40.2,38.6,29.49,WNW,301,1.0,1.0,94,0.06,,,0.54,18,Wunderground v.1.15,2013-04-07 14:31:00,
2013-04-07 07:37:00,40.3,38.7,29.49,WNW,301,0.0,2.0,94,0.04,,,0.54,19,Wunderground v.1.15,2013-04-07 14:37:00,
2013-04-07 07:47:00,40.6,39.3,29.50,WNW,301,0.0,0.0,95,0.00,,,0.54,25,Wunderground v.1.15,2013-04-07 14:47:00,
2013-04-07 07:57:00,41.2,39.9,29.50,WNW,287,1.0,2.0,95,0.00,,,0.55,53,Wunderground v.1.15,2013-04-07 14:57:00,
2013-04-07 08:07:00,41.5,40.2,29.51,WNW,289,4.0,8.0,95,0.00,,,0.55,33,Wunderground v.1.15,2013-04-07 15:07:00,
2013-04-07 08:17:00,41.3,40.0,29.53,NW,304,4.0,7.0,95,0.00,,,0.55,49,Wunderground v.1.15,2013-04-07 15:17:00,
2013-04-07 08:27:00,41.5,39.9,29.53,WNW,298,3.0,9.0,94,0.00,,,0.55,67,Wunderground v.1.15,2013-04-07 15:27:00,
2013-04-07 08:37:00,41.6,40.0,29.54,WNW,289,3.0,6.0,94,0.00,,,0.56,88,Wunderground v.1.15,2013-04-07 15:37:00,
2013-04-07 08:52:00,41.8,40.2,29.56,West,281,3.0,3.0,94,0.00,,,0.56,77,Wunderground v.1.15,2013-04-07 15:52:00,
2013-04-07 09:06:00,41.6,39.7,29.57,WNW,295,3.0,5.0,93,0.06,,,0.58,95,Wunderground v.1.15,2013-04-07 16:06:00,
2013-04-07 09:16:00,41.8,39.9,29.58,WNW,299,3.0,3.0,93,0.05,,,0.59,83,Wunderground v.1.15,2013-04-07 16:16:00,
2013-04-07 09:26:00,41.9,40.0,29.58,West,261,1.0,4.0,93,0.06,,,0.60,88,Wunderground v.1.15,2013-04-07 16:26:00,
2013-04-07 09:36:00,42.1,40.5,29.58,WSW,258,1.0,1.0,94,0.06,,,0.60,90,Wunderground v.1.15,2013-04-07 16:36:00,
2013-04-07 09:51:00,42.6,41.0,29.60,WSW,257,0.0,0.0,94,0.05,,,0.61,93,Wunderground v.1.15,2013-04-07 16:51:00,
2013-04-07 09:56:00,42.8,41.2,29.60,WSW,254,0.0,2.0,94,0.00,,,0.61,99,Wunderground v.1.15,2013-04-07 16:56:00,
2013-04-07 10:11:00,42.2,40.6,29.60,SSW,198,4.0,6.0,94,0.00,,,0.62,106,Wunderground v.1.15,2013-04-07 17:11:00,
2013-04-07 10:16:00,42.3,41.0,29.60,South,191,4.0,10.0,95,0.00,,,0.62,107,Wunderground v.1.15,2013-04-07 17:16:00,
2013-04-07 10:31:00,41.9,40.6,29.61,South,178,4.0,4.0,95,0.07,,,0.64,134,Wunderground v.1.15,2013-04-07 17:31:00,
2013-04-07 10:41:00,41.9,40.6,29.61,South,189,4.0,4.0,95,0.04,,,0.65,120,Wunderground v.1.15,2013-04-07 17:41:00,
2013-04-07 10:51:00,41.9,40.6,29.63,South,191,5.0,5.0,95,0.04,,,0.65,118,Wunderground v.1.15,2013-04-07 17:51:00,
2013-04-07 10:57:00,41.9,40.6,29.63,SE,144,4.0,5.0,95,0.00,,,0.66,123,Wunderground v.1.15,2013-04-07 17:57:00,
2013-04-07 11:16:00,41.9,40.3,29.64,South,189,5.0,11.0,94,0.00,,,0.67,99,Wunderground v.1.15,2013-04-07 18:16:00,
2013-04-07 11:27:00,41.6,39.7,29.64,South,179,6.0,10.0,93,0.07,,,0.68,169,Wunderground v.1.15,2013-04-07 18:27:00,
2013-04-07 11:37:00,41.8,39.9,29.65,SSE,168,3.0,4.0,93,0.05,,,0.68,190,Wunderground v.1.15,2013-04-07 18:37:00,
2013-04-07 11:47:00,41.8,39.9,29.66,South,171,3.0,6.0,93,0.00,,,0.68,183,Wunderground v.1.15,2013-04-07 18:47:00,
2013-04-07 11:57:00,41.9,39.7,29.66,SSW,202,3.0,8.0,92,0.00,,,0.69,171,Wunderground v.1.15,2013-04-07 18:57:00,
2013-04-07 12:07:00,41.8,39.6,29.66,SSE,151,4.0,9.0,92,0.00,,,0.69,243,Wunderground v.1.15,2013-04-07 19:07:00,
2013-04-07 12:17:00,42.2,39.8,29.66,ESE,121,2.0,3.0,91,0.00,,,0.69,259,Wunderground v.1.15,2013-04-07 19:17:00,
2013-04-07 12:27:00,42.5,39.8,29.66,ESE,112,4.0,4.0,90,0.00,,,0.69,278,Wunderground v.1.15,2013-04-07 19:27:00,
2013-04-07 12:37:00,42.8,39.8,29.67,ESE,112,2.0,3.0,89,0.00,,,0.69,197,Wunderground v.1.15,2013-04-07 19:37:00,
2013-04-07 12:52:00,42.9,40.2,29.67,SE,140,2.0,2.0,90,0.00,,,0.69,128,Wunderground v.1.15,2013-04-07 19:52:00,
2013-04-07 13:00:00,42.9,40.2,29.68,SE,137,1.0,1.0,90,0.00,,,0.69,123,Wunderground v.1.15,2013-04-07 20:00:00,
2013-04-07 13:06:00,42.9,40.2,29.68,SE,137,1.0,1.0,90,0.00,,,0.69,128,Wunderground v.1.15,2013-04-07 20:06:00,
2013-04-07 13:21:00,43.2,40.8,29.68,SE,136,1.0,1.0,91,0.00,,,0.70,169,Wunderground v.1.15,2013-04-07 20:21:00,
2013-04-07 13:26:00,43.3,41.1,29.68,SE,136,1.0,1.0,92,0.00,,,0.70,185,Wunderground v.1.15,2013-04-07 20:26:00,
2013-04-07 13:36:00,43.1,40.9,29.68,SE,134,2.0,2.0,92,0.00,,,0.70,169,Wunderground v.1.15,2013-04-07 20:36:00,
2013-04-07 13:51:00,43.1,41.2,29.69,East,99,2.0,3.0,93,0.00,,,0.71,267,Wunderground v.1.15,2013-04-07 20:51:00,
2013-04-07 13:56:00,43.1,41.2,29.69,East,97,2.0,3.0,93,0.00,,,0.71,285,Wunderground v.1.15,2013-04-07 20:56:00,
2013-04-07 14:11:00,43.9,42.0,29.69,East,96,1.0,2.0,93,0.00,,,0.71,287,Wunderground v.1.15,2013-04-07 21:11:00,
2013-04-07 14:16:00,44.1,42.5,29.69,ESE,106,1.0,3.0,94,0.00,,,0.71,267,Wunderground v.1.15,2013-04-07 21:16:00,
2013-04-07 14:36:00,44.2,42.3,29.69,ESE,107,2.0,3.0,93,0.00,,,0.71,278,Wunderground v.1.15,2013-04-07 21:36:00,
2013-04-07 14:46:00,44.5,42.6,29.69,ESE,116,3.0,3.0,93,0.00,,,0.71,278,Wunderground v.1.15,2013-04-07 21:46:00,
2013-04-07 14:57:00,44.8,43.2,29.69,East,97,2.0,3.0,94,0.00,,,0.71,234,Wunderground v.1.15,2013-04-07 21:57:00,
2013-04-07 15:07:00,44.9,43.0,29.70,East,99,2.0,2.0,93,0.00,,,0.71,241,Wunderground v.1.15,2013-04-07 22:07:00,
2013-04-07 15:17:00,44.6,42.7,29.70,East,90,3.0,3.0,93,0.00,,,0.71,223,Wunderground v.1.15,2013-04-07 22:17:00,
2013-04-07 15:27:00,44.8,42.6,29.70,ESE,114,2.0,2.0,92,0.00,,,0.71,187,Wunderground v.1.15,2013-04-07 22:27:00,
2013-04-07 15:37:00,44.9,42.7,29.70,ESE,106,2.0,2.0,92,0.00,,,0.71,144,Wunderground v.1.15,2013-04-07 22:37:00,
2013-04-07 15:47:00,44.9,42.7,29.71,East,100,1.0,2.0,92,0.00,,,0.71,121,Wunderground v.1.15,2013-04-07 22:47:00,
2013-04-07 15:57:00,44.9,43.0,29.71,East,96,2.0,2.0,93,0.00,,,0.71,107,Wunderground v.1.15,2013-04-07 22:57:00,
2013-04-07 16:07:00,45.1,42.9,29.71,East,100,1.0,2.0,92,0.00,,,0.72,132,Wunderground v.1.15,2013-04-07 23:07:00,
2013-04-07 16:17:00,45.2,43.3,29.71,ESE,104,2.0,3.0,93,0.00,,,0.72,206,Wunderground v.1.15,2013-04-07 23:17:00,
2013-04-07 16:27:00,45.2,43.3,29.71,ESE,117,2.0,2.0,93,0.04,,,0.73,172,Wunderground v.1.15,2013-04-07 23:27:00,
2013-04-07 16:37:00,45.1,42.9,29.72,ESE,116,1.0,2.0,92,0.00,,,0.73,118,Wunderground v.1.15,2013-04-07 23:37:00,
2013-04-07 16:47:00,45.2,43.0,29.72,ESE,116,1.0,1.0,92,0.00,,,0.73,135,Wunderground v.1.15,2013-04-07 23:47:00,
2013-04-07 16:57:00,45.1,42.9,29.72,ESE,117,2.0,3.0,92,0.00,,,0.74,150,Wunderground v.1.15,2013-04-07 23:57:00,
2013-04-07 17:06:00,44.8,42.0,29.72,ESE,119,3.0,4.0,90,0.00,,,0.74,144,Wunderground v.1.15,2013-04-08 00:06:00,
2013-04-07 17:20:00,45.1,42.9,29.72,SE,141,2.0,3.0,92,0.00,,,0.74,77,Wunderground v.1.15,2013-04-08 00:20:00,
2013-04-07 17:31:00,45.1,42.9,29.73,SE,127,1.0,2.0,92,0.00,,,0.75,76,Wunderground v.1.15,2013-04-08 00:31:00,
2013-04-07 17:36:00,44.8,42.3,29.73,ESE,117,2.0,2.0,91,0.00,,,0.75,90,Wunderground v.1.15,2013-04-08 00:36:00,
2013-04-07 17:46:00,44.6,42.1,29.73,ESE,117,1.0,2.0,91,0.00,,,0.75,84,Wunderground v.1.15,2013-04-08 00:46:00,
2013-04-07 17:56:00,44.9,42.4,29.73,ESE,117,1.0,1.0,91,0.00,,,0.75,63,Wunderground v.1.15,2013-04-08 00:56:00,
2013-04-07 18:16:00,45.2,42.7,29.73,ESE,117,0.0,1.0,91,0.00,,,0.75,77,Wunderground v.1.15,2013-04-08 01:16:00,
2013-04-07 18:31:00,45.4,42.9,29.74,ESE,117,1.0,2.0,91,0.00,,,0.75,60,Wunderground v.1.15,2013-04-08 01:31:00,
2013-04-07 18:36:00,45.2,42.2,29.74,ESE,107,2.0,2.0,89,0.00,,,0.75,58,Wunderground v.1.15,2013-04-08 01:36:00,
2013-04-07 18:46:00,45.1,42.1,29.74,ESE,107,1.0,2.0,89,0.00,,,0.75,53,Wunderground v.1.15,2013-04-08 01:46:00,
2013-04-07 18:57:00,45.1,42.1,29.74,ESE,107,1.0,2.0,89,0.00,,,0.75,46,Wunderground v.1.15,2013-04-08 01:57:00,
2013-04-07 19:06:00,45.1,42.3,29.74,ESE,107,1.0,1.0,90,0.00,,,0.75,35,Wunderground v.1.15,2013-04-08 02:06:00,
2013-04-07 19:17:00,44.9,42.1,29.74,ESE,110,1.0,2.0,90,0.00,,,0.75,28,Wunderground v.1.15,2013-04-08 02:17:00,
2013-04-07 19:27:00,44.9,42.4,29.74,ESE,110,0.0,1.0,91,0.00,,,0.75,18,Wunderground v.1.15,2013-04-08 02:27:00,
2013-04-07 19:37:00,44.9,42.4,29.75,ESE,112,0.0,0.0,91,0.00,,,0.75,7,Wunderground v.1.15,2013-04-08 02:37:00,
2013-04-07 19:47:00,44.8,42.3,29.75,ESE,110,0.0,0.0,91,0.00,,,0.75,5,Wunderground v.1.15,2013-04-08 02:47:00,
2013-04-07 19:57:00,44.6,42.1,29.75,ESE,110,0.0,0.0,91,0.00,,,0.75,0,Wunderground v.1.15,2013-04-08 02:57:00,
2013-04-07 20:07:00,44.6,41.8,29.76,ESE,103,0.0,0.0,90,0.00,,,0.75,0,Wunderground v.1.15,2013-04-08 03:07:00,
2013-04-07 20:17:00,44.3,41.6,29.77,ESE,112,0.0,0.0,90,0.00,,,0.75,0,Wunderground v.1.15,2013-04-08 03:17:00,
2013-04-07 20:27:00,44.2,41.5,29.77,ESE,112,0.0,0.0,90,0.00,,,0.75,0,Wunderground v.1.15,2013-04-08 03:27:00,
2013-04-07 20:37:00,44.1,41.4,29.77,ESE,112,0.0,0.0,90,0.00,,,0.75,0,Wunderground v.1.15,2013-04-08 03:37:00,
2013-04-07 20:42:00,44.1,41.4,29.77,ESE,112,0.0,0.0,90,0.00,,,0.75,0,Wunderground v.1.15,2013-04-08 03:42:00,
2013-04-07 20:47:00,44.1,41.4,29.77,ESE,112,0.0,1.0,90,0.00,,,0.75,0,Wunderground v.1.15,2013-04-08 03:47:00,
2013-04-07 20:57:00,44.1,41.6,29.77,ESE,112,0.0,0.0,91,0.00,,,0.75,0,Wunderground v.1.15,2013-04-08 03:57:00,
2013-04-07 21:00:00,44.1,41.6,29.78,ESE,112,0.0,0.0,91,0.00,,,0.75,0,Wunderground v.1.15,2013-04-08 04:00:00,
2013-04-07 21:10:00,44.1,41.6,29.78,ESE,112,0.0,0.0,91,0.00,,,0.75,0,Wunderground v.1.15,2013-04-08 04:10:00,
2013-04-07 21:16:00,44.2,41.7,29.78,ESE,112,0.0,0.0,91,0.00,,,0.75,0,Wunderground v.1.15,2013-04-08 04:16:00,
2013-04-07 21:26:00,44.1,41.6,29.78,ESE,112,0.0,1.0,91,0.00,,,0.75,0,Wunderground v.1.15,2013-04-08 04:26:00,
2013-04-07 21:31:00,43.9,41.4,29.79,ESE,112,1.0,1.0,91,0.00,,,0.75,0,Wunderground v.1.15,2013-04-08 04:31:00,
2013-04-07 21:41:00,43.8,41.3,29.79,ESE,112,1.0,1.0,91,0.00,,,0.75,0,Wunderground v.1.15,2013-04-08 04:41:00,
2013-04-07 21:51:00,43.6,40.9,29.79,ESE,110,2.0,3.0,90,0.00,,,0.75,0,Wunderground v.1.15,2013-04-08 04:51:00,
2013-04-07 21:56:00,43.6,41.1,29.79,ESE,112,2.0,3.0,91,0.00,,,0.75,0,Wunderground v.1.15,2013-04-08 04:56:00,
2013-04-07 22:01:00,43.5,40.8,29.80,ESE,110,2.0,4.0,90,0.00,,,0.75,0,Wunderground v.1.15,2013-04-08 05:01:00,
2013-04-07 22:11:00,43.5,41.0,29.80,ESE,110,1.0,1.0,91,0.00,,,0.75,0,Wunderground v.1.15,2013-04-08 05:11:00,
2013-04-07 22:16:00,43.5,41.0,29.80,ESE,110,1.0,1.0,91,0.00,,,0.75,0,Wunderground v.1.15,2013-04-08 05:16:00,
2013-04-07 22:36:00,43.2,40.2,29.81,ESE,113,4.0,5.0,89,0.00,,,0.75,0,Wunderground v.1.15,2013-04-08 05:36:00,
2013-04-07 22:41:00,43.2,40.2,29.81,ESE,113,4.0,4.0,89,0.00,,,0.75,0,Wunderground v.1.15,2013-04-08 05:41:00,
2013-04-07 22:46:00,43.2,40.2,29.82,ESE,116,3.0,4.0,89,0.00,,,0.75,0,Wunderground v.1.15,2013-04-08 05:46:00,
2013-04-07 22:57:00,43.1,40.1,29.82,ESE,116,1.0,2.0,89,0.00,,,0.75,0,Wunderground v.1.15,2013-04-08 05:57:00,
2013-04-07 23:07:00,43.1,40.1,29.82,ESE,116,2.0,2.0,89,0.00,,,0.75,0,Wunderground v.1.15,2013-04-08 06:07:00,
2013-04-07 23:16:00,42.9,39.9,29.82,ESE,116,2.0,2.0,89,0.00,,,0.75,0,Wunderground v.1.15,2013-04-08 06:16:00,
2013-04-07 23:26:00,42.9,40.2,29.82,ESE,116,1.0,3.0,90,0.00,,,0.75,0,Wunderground v.1.15,2013-04-08 06:26:00,
2013-04-07 23:36:00,42.8,40.1,29.83,ESE,117,2.0,2.0,90,0.00,,,0.75,0,Wunderground v.1.15,2013-04-08 06:36:00,
2013-04-07 23:47:00,42.6,39.9,29.83,ESE,107,5.0,6.0,90,0.00,,,0.75,0,Wunderground v.1.15,2013-04-08 06:47:00,
2013-04-07 23:56:00,42.5,40.1,29.83,ESE,116,3.0,5.0,91,0.00,,,0.75,0,Wunderground v.1.15,2013-04-08 06:56:00,